Terminal Aerodrome Forecast
Issued by NWS

Home | Current Version | Previous Version | Text Only | Print | Product List | Glossary On
Versions: 1 2 3 4 5 6 7 8 9 10 11 12 13 14
000
FTUS42 KMLB 251126
TAFFPR
TAF
KFPR 251126Z 2512/2612 22005KT P6SM VCSH FEW050 SCT070 BKN100
      TEMPO 2512/2515 5SM SHRA BKN025 OVC050
     FM251500 26014G20KT P6SM SCT040 BKN060
     FM252200 27008KT P6SM SCT050
     FM260600 27005KT P6SM SKC=

USA.gov is the U.S. government's official web portal to all federal, state and local government web resources and services.